createdAt,value
2023-04-07T00:01:38.922Z,65.38
2023-04-07T00:04:07.363Z,65.14
2023-04-07T00:06:40.777Z,65.05
2023-04-07T00:09:16.023Z,65.14
2023-04-07T00:12:03.238Z,65.22
2023-04-07T00:14:31.726Z,65.04
2023-04-07T00:17:00.417Z,64.74
2023-04-07T00:19:33.814Z,64.72
2023-04-07T00:22:04.823Z,64.42
2023-04-07T00:24:34.612Z,64.80
2023-04-07T00:27:06.011Z,64.66
2023-04-07T00:29:34.624Z,64.53
2023-04-07T00:32:08.740Z,64.57
2023-04-07T00:34:46.210Z,64.62
2023-04-07T00:37:17.769Z,64.60
2023-04-07T00:39:46.909Z,64.83
2023-04-07T00:42:22.363Z,64.94
2023-04-07T00:44:50.664Z,64.41
2023-04-07T00:47:21.334Z,64.78
2023-04-07T00:49:50.055Z,64.70
2023-04-07T00:52:27.000Z,64.69
2023-04-07T00:55:12.275Z,64.67
2023-04-07T00:57:46.957Z,64.82
2023-04-07T01:00:15.720Z,64.84
2023-04-07T01:02:52.658Z,64.82
2023-04-07T01:05:30.602Z,64.84
2023-04-07T01:08:33.757Z,64.18
2023-04-07T01:11:11.154Z,64.45
2023-04-07T01:13:48.782Z,64.17
2023-04-07T01:16:41.985Z,63.90
2023-04-07T01:19:20.905Z,63.93
2023-04-07T01:21:52.533Z,63.54
2023-04-07T01:24:46.917Z,63.68
2023-04-07T01:27:44.039Z,63.16
2023-04-07T01:30:16.347Z,63.01
2023-04-07T01:32:50.496Z,62.80
2023-04-07T01:35:20.442Z,62.94
2023-04-07T01:37:50.780Z,62.80
2023-04-07T01:40:25.834Z,62.70
2023-04-07T01:43:20.620Z,62.37
2023-04-07T01:45:50.543Z,62.56
2023-04-07T01:48:22.432Z,62.45
2023-04-07T01:50:54.497Z,62.13
2023-04-07T01:53:24.432Z,62.20
2023-04-07T01:55:54.979Z,62.00
2023-04-07T01:58:23.350Z,61.74
2023-04-07T02:01:03.843Z,61.34
2023-04-07T02:03:49.874Z,61.28
2023-04-07T02:06:22.571Z,61.32
2023-04-07T02:08:58.938Z,61.19
2023-04-07T02:11:33.039Z,61.14
2023-04-07T02:14:02.780Z,61.11
2023-04-07T02:16:32.071Z,61.31
2023-04-07T02:19:04.061Z,61.39
2023-04-07T02:21:40.936Z,61.61
2023-04-07T02:24:12.736Z,61.71
2023-04-07T02:26:44.656Z,61.92
2023-04-07T02:29:16.198Z,62.17
2023-04-07T02:31:44.567Z,62.47
2023-04-07T02:34:13.360Z,62.76
2023-04-07T02:36:41.792Z,63.09
2023-04-07T02:39:10.872Z,63.46
2023-04-07T02:41:39.149Z,63.77
2023-04-07T02:44:16.666Z,64.35
2023-04-07T02:46:47.972Z,64.30
2023-04-07T02:49:16.528Z,64.24
2023-04-07T02:51:47.133Z,64.72
2023-04-07T02:54:25.718Z,64.77
2023-04-07T02:56:54.023Z,65.04
2023-04-07T02:59:25.160Z,65.32
2023-04-07T03:01:53.527Z,65.19
2023-04-07T03:04:24.414Z,65.41
2023-04-07T03:06:53.278Z,65.97
2023-04-07T03:09:21.582Z,65.61
2023-04-07T03:11:57.263Z,65.84
2023-04-07T03:14:26.083Z,66.04
2023-04-07T03:16:54.972Z,65.95
2023-04-07T03:19:35.632Z,66.07
2023-04-07T03:22:04.215Z,66.60
2023-04-07T03:24:32.782Z,66.45
2023-04-07T03:27:02.571Z,66.47
2023-04-07T03:29:42.399Z,66.59
2023-04-07T03:32:10.545Z,66.59
2023-04-07T03:34:46.490Z,67.00
2023-04-07T03:37:14.810Z,67.18
2023-04-07T03:39:50.301Z,67.18
2023-04-07T03:42:24.654Z,67.29
2023-04-07T03:45:04.860Z,67.22
2023-04-07T03:47:33.834Z,67.24
2023-04-07T03:50:02.848Z,67.29
2023-04-07T03:52:34.079Z,67.32
2023-04-07T03:55:02.256Z,67.37
2023-04-07T03:57:54.383Z,67.46
2023-04-07T04:00:49.985Z,67.42
2023-04-07T04:03:19.208Z,67.45
2023-04-07T04:05:47.670Z,67.57
2023-04-07T04:08:18.955Z,67.69
2023-04-07T04:10:47.542Z,67.64
2023-04-07T04:13:19.053Z,67.60
2023-04-07T04:15:47.597Z,67.64
2023-04-07T04:18:16.611Z,67.67
2023-04-07T04:20:44.873Z,68.23
2023-04-07T04:23:13.128Z,68.39
2023-04-07T04:25:41.778Z,68.59
2023-04-07T04:28:10.592Z,68.83
2023-04-07T04:30:49.662Z,68.71
2023-04-07T04:33:37.964Z,69.03
2023-04-07T04:36:26.767Z,69.27
2023-04-07T04:38:57.839Z,69.45
2023-04-07T04:41:33.523Z,69.85
2023-04-07T04:44:01.984Z,69.83
2023-04-07T04:46:33.597Z,69.69
2023-04-07T04:49:02.170Z,69.61
2023-04-07T04:51:30.455Z,69.86
2023-04-07T04:54:01.595Z,69.75
2023-04-07T04:56:32.958Z,70.15
2023-04-07T04:59:06.555Z,69.97
2023-04-07T05:01:35.026Z,70.06
2023-04-07T05:04:11.504Z,70.16
2023-04-07T05:06:39.816Z,70.38
2023-04-07T05:09:08.159Z,70.33
2023-04-07T05:11:45.683Z,70.30
2023-04-07T05:14:14.312Z,70.32
2023-04-07T05:16:42.655Z,70.18
2023-04-07T05:19:14.244Z,70.18
2023-04-07T05:21:45.800Z,70.22
2023-04-07T05:24:14.222Z,70.04
2023-04-07T05:26:54.403Z,69.94
2023-04-07T05:29:23.836Z,69.90
2023-04-07T05:31:52.006Z,69.96
2023-04-07T05:34:20.490Z,70.05
2023-04-07T05:36:48.686Z,69.97
2023-04-07T05:39:22.811Z,70.03
2023-04-07T05:41:52.408Z,70.07
2023-04-07T05:44:39.893Z,69.88
2023-04-07T05:47:09.354Z,69.71
2023-04-07T05:49:37.782Z,69.83
2023-04-07T05:52:09.170Z,69.82
2023-04-07T05:54:37.386Z,70.03
2023-04-07T05:57:33.228Z,70.06
2023-04-07T06:00:23.894Z,69.93
2023-04-07T06:02:52.300Z,70.24
2023-04-07T06:05:21.425Z,70.21
2023-04-07T06:07:49.853Z,70.23
2023-04-07T06:10:18.278Z,70.14
2023-04-07T06:12:46.901Z,69.98
2023-04-07T06:15:15.183Z,69.85
2023-04-07T06:17:45.846Z,69.60
2023-04-07T06:20:14.239Z,69.76
2023-04-07T06:22:42.461Z,69.63
2023-04-07T06:25:10.806Z,69.55
2023-04-07T06:27:39.423Z,69.06
2023-04-07T06:30:08.689Z,69.04
2023-04-07T06:32:37.054Z,69.05
2023-04-07T06:35:05.788Z,68.88
2023-04-07T06:37:34.036Z,68.92
2023-04-07T06:40:02.367Z,68.74
2023-04-07T06:42:31.037Z,68.68
2023-04-07T06:44:59.286Z,68.84
2023-04-07T06:47:28.439Z,68.70
2023-04-07T06:49:56.933Z,68.83
2023-04-07T06:52:25.494Z,69.07
2023-04-07T06:54:54.167Z,69.37
2023-04-07T06:57:25.164Z,70.08
2023-04-07T06:59:53.598Z,70.54
2023-04-07T07:02:22.076Z,71.04
2023-04-07T07:04:51.350Z,71.94
2023-04-07T07:07:19.851Z,72.88
2023-04-07T07:09:48.331Z,73.85
2023-04-07T07:12:18.307Z,74.93
2023-04-07T07:15:08.317Z,74.80
2023-04-07T07:17:44.130Z,75.08
2023-04-07T07:20:12.875Z,75.33
2023-04-07T07:22:41.767Z,75.17
2023-04-07T07:25:10.531Z,75.97
2023-04-07T07:27:39.926Z,76.01
2023-04-07T07:30:17.425Z,76.24
2023-04-07T07:32:46.742Z,76.53
2023-04-07T07:35:15.600Z,77.00
2023-04-07T07:38:07.488Z,77.47
2023-04-07T07:40:35.916Z,77.71
2023-04-07T07:43:04.116Z,77.76
2023-04-07T07:45:32.330Z,77.91
2023-04-07T07:48:01.153Z,78.15
2023-04-07T07:50:35.295Z,78.09
2023-04-07T07:53:03.479Z,78.28
2023-04-07T07:55:31.733Z,78.45
2023-04-07T07:58:00.336Z,78.50
2023-04-07T08:00:29.124Z,78.68
2023-04-07T08:02:57.438Z,78.74
2023-04-07T08:05:26.465Z,79.00
2023-04-07T08:07:55.721Z,78.86
2023-04-07T08:10:25.611Z,79.17
2023-04-07T08:12:53.800Z,79.03
2023-04-07T08:15:22.039Z,79.11
2023-04-07T08:17:50.504Z,79.05
2023-04-07T08:20:19.653Z,79.31
2023-04-07T08:22:48.951Z,79.65
2023-04-07T08:25:26.153Z,80.07
2023-04-07T08:27:55.755Z,80.22
2023-04-07T08:30:32.682Z,80.72
2023-04-07T08:33:01.649Z,80.45
2023-04-07T08:35:30.120Z,80.71
2023-04-07T08:37:58.769Z,81.27
2023-04-07T08:40:27.378Z,81.53
2023-04-07T08:42:58.297Z,81.32
2023-04-07T08:45:27.084Z,81.94
2023-04-07T08:47:59.670Z,81.81
2023-04-07T08:50:29.043Z,81.94
2023-04-07T08:53:00.917Z,82.17
2023-04-07T08:55:29.342Z,82.11
2023-04-07T08:58:00.126Z,82.18
2023-04-07T09:00:30.516Z,82.12
2023-04-07T09:03:01.185Z,82.58
2023-04-07T09:05:31.095Z,82.61
2023-04-07T09:07:59.517Z,82.82
2023-04-07T09:10:27.638Z,82.89
2023-04-07T09:12:58.587Z,82.70
2023-04-07T09:15:31.290Z,82.73
2023-04-07T09:17:59.811Z,83.01
2023-04-07T09:20:28.250Z,83.14
2023-04-07T09:22:56.938Z,83.09
2023-04-07T09:25:29.974Z,83.08
2023-04-07T09:28:25.898Z,82.59
2023-04-07T09:30:55.909Z,82.74
2023-04-07T09:33:43.260Z,82.82
2023-04-07T09:36:12.590Z,82.74
2023-04-07T09:38:42.139Z,82.88
2023-04-07T09:41:17.759Z,82.74
2023-04-07T09:43:47.825Z,83.01
2023-04-07T09:46:19.313Z,82.98
2023-04-07T09:48:48.744Z,82.88
2023-04-07T09:51:18.077Z,82.48
2023-04-07T09:53:51.956Z,82.50
2023-04-07T09:56:25.164Z,82.24
2023-04-07T09:58:53.490Z,82.19
2023-04-07T10:01:22.379Z,82.35
2023-04-07T10:03:51.805Z,82.28
2023-04-07T10:06:20.856Z,82.26
2023-04-07T10:08:49.326Z,82.48
2023-04-07T10:11:18.242Z,82.42
2023-04-07T10:13:47.112Z,82.24
2023-04-07T10:16:16.185Z,82.50
2023-04-07T10:18:53.662Z,82.38
2023-04-07T10:21:23.372Z,82.41
2023-04-07T10:24:43.422Z,82.32
2023-04-07T10:27:19.820Z,82.62
2023-04-07T10:29:58.700Z,82.68
2023-04-07T10:32:52.006Z,82.91
2023-04-07T10:35:22.373Z,83.22
2023-04-07T10:38:08.823Z,83.41
2023-04-07T10:40:38.583Z,83.55
2023-04-07T10:43:09.813Z,83.61
2023-04-07T10:45:52.551Z,83.61
2023-04-07T10:48:33.257Z,83.95
2023-04-07T10:51:08.609Z,83.79
2023-04-07T10:53:37.171Z,84.08
2023-04-07T10:56:06.072Z,84.16
2023-04-07T10:58:35.113Z,84.13
2023-04-07T11:01:41.892Z,84.57
2023-04-07T11:04:10.356Z,84.59
2023-04-07T11:06:48.324Z,84.40
2023-04-07T11:09:29.021Z,84.70
2023-04-07T11:11:57.934Z,84.66
2023-04-07T11:14:28.581Z,84.84
2023-04-07T11:16:57.162Z,84.64
2023-04-07T11:19:25.598Z,84.90
2023-04-07T11:22:32.960Z,84.76
2023-04-07T11:25:01.526Z,85.09
2023-04-07T11:27:31.894Z,85.38
2023-04-07T11:30:01.075Z,85.61
2023-04-07T11:32:30.221Z,85.84
2023-04-07T11:34:59.413Z,86.20
2023-04-07T11:37:29.177Z,86.84
2023-04-07T11:39:59.143Z,86.83
2023-04-07T11:42:40.501Z,86.92
2023-04-07T11:45:22.407Z,87.34
2023-04-07T11:47:51.338Z,87.72
2023-04-07T11:50:40.142Z,88.00
2023-04-07T11:53:09.314Z,88.21
2023-04-07T11:55:37.558Z,88.19
2023-04-07T11:58:07.073Z,88.37
2023-04-07T12:00:35.498Z,88.41
2023-04-07T12:03:14.631Z,88.58
2023-04-07T12:05:46.848Z,88.82
2023-04-07T12:08:19.134Z,89.00
2023-04-07T12:10:48.422Z,89.05
2023-04-07T12:13:19.904Z,89.24
2023-04-07T12:15:48.398Z,89.67
2023-04-07T12:18:18.474Z,89.79
2023-04-07T12:20:46.854Z,90.01
2023-04-07T12:23:15.097Z,90.22
2023-04-07T12:25:43.288Z,90.20
2023-04-07T12:28:11.789Z,90.46
2023-04-07T12:30:39.932Z,90.83
2023-04-07T12:33:11.400Z,90.82
2023-04-07T12:35:39.479Z,91.15
2023-04-07T12:38:16.692Z,91.29
2023-04-07T12:40:44.938Z,91.62
2023-04-07T12:43:13.806Z,91.78
2023-04-07T12:45:50.859Z,91.79
2023-04-07T12:48:22.396Z,92.11
2023-04-07T12:50:50.530Z,92.32
2023-04-07T12:53:18.853Z,92.61
2023-04-07T12:55:50.225Z,92.66
2023-04-07T12:58:19.376Z,93.05
2023-04-07T13:00:47.930Z,93.21
2023-04-07T13:03:17.049Z,93.40
2023-04-07T13:05:45.564Z,93.48
2023-04-07T13:08:14.714Z,93.78
2023-04-07T13:10:43.138Z,93.82
2023-04-07T13:13:11.719Z,93.65
2023-04-07T13:15:42.847Z,94.01
2023-04-07T13:18:22.044Z,94.17
2023-04-07T13:21:02.921Z,94.45
2023-04-07T13:23:43.219Z,94.61
2023-04-07T13:26:12.287Z,94.63
2023-04-07T13:28:41.726Z,95.00
2023-04-07T13:31:12.051Z,94.77
2023-04-07T13:33:41.442Z,94.98
2023-04-07T13:36:10.495Z,95.05
2023-04-07T13:38:38.803Z,95.48
2023-04-07T13:41:38.522Z,95.57
2023-04-07T13:44:07.384Z,95.85
2023-04-07T13:46:35.908Z,96.16
2023-04-07T13:49:04.397Z,96.26
2023-04-07T13:51:33.125Z,96.42
2023-04-07T13:54:04.828Z,96.52
2023-04-07T13:56:33.205Z,96.57
2023-04-07T13:59:02.520Z,96.49
2023-04-07T14:01:31.347Z,96.64
2023-04-07T14:04:01.096Z,96.53
2023-04-07T14:06:29.825Z,96.67
2023-04-07T14:08:58.685Z,96.78
2023-04-07T14:11:30.208Z,96.72
2023-04-07T14:13:58.457Z,96.98
2023-04-07T14:16:26.895Z,97.15
2023-04-07T14:18:56.409Z,97.35
2023-04-07T14:21:24.979Z,97.23
2023-04-07T14:23:53.654Z,97.31
2023-04-07T14:26:22.333Z,97.55
2023-04-07T14:28:50.611Z,97.61
2023-04-07T14:31:19.078Z,97.70
2023-04-07T14:33:47.661Z,97.76
2023-04-07T14:36:19.315Z,97.83
2023-04-07T14:38:47.991Z,98.00
2023-04-07T14:41:23.689Z,98.15
2023-04-07T14:43:56.477Z,98.29
2023-04-07T14:46:26.935Z,98.25
2023-04-07T14:48:56.129Z,98.52
2023-04-07T14:51:27.718Z,98.62
2023-04-07T14:54:03.961Z,98.85
2023-04-07T14:56:41.909Z,99.06
2023-04-07T14:59:10.970Z,99.04
2023-04-07T15:01:42.738Z,99.12
2023-04-07T15:04:12.378Z,99.32
2023-04-07T15:06:47.443Z,99.33
2023-04-07T15:09:16.015Z,99.23
2023-04-07T15:11:44.439Z,99.60
2023-04-07T15:14:12.936Z,99.78
2023-04-07T15:16:41.342Z,99.79
2023-04-07T15:19:09.667Z,99.86
2023-04-07T15:21:46.768Z,99.81
2023-04-07T15:24:16.546Z,99.93
2023-04-07T15:26:45.113Z,100.00
2023-04-07T15:29:14.253Z,99.96
2023-04-07T15:31:56.199Z,99.96
2023-04-07T15:34:24.581Z,100.00
2023-04-07T15:36:52.963Z,100.00
2023-04-07T15:39:24.348Z,100.00
2023-04-07T15:41:53.008Z,100.00
2023-04-07T15:44:21.557Z,100.00
2023-04-07T15:46:54.346Z,100.00
2023-04-07T15:49:25.654Z,100.00
2023-04-07T15:51:54.359Z,100.00
2023-04-07T15:54:22.680Z,100.00
2023-04-07T15:56:51.897Z,100.00
2023-04-07T15:59:20.215Z,100.00
2023-04-07T16:01:49.285Z,100.00
2023-04-07T16:04:17.735Z,100.00
2023-04-07T16:06:46.243Z,100.00
2023-04-07T16:09:15.204Z,100.00
2023-04-07T16:11:43.716Z,100.00
2023-04-07T16:14:12.206Z,100.00
2023-04-07T16:16:41.745Z,100.00
2023-04-07T16:19:10.621Z,100.00
2023-04-07T16:21:39.680Z,100.00
2023-04-07T16:24:07.907Z,100.00
2023-04-07T16:26:36.024Z,100.00
2023-04-07T16:29:04.258Z,100.00
2023-04-07T16:31:32.616Z,100.00
2023-04-07T16:34:02.009Z,100.00
2023-04-07T16:36:30.919Z,100.00
2023-04-07T16:38:59.133Z,100.00
2023-04-07T16:41:27.716Z,100.00
2023-04-07T16:43:56.127Z,100.00
2023-04-07T16:46:28.431Z,100.00
2023-04-07T16:49:00.066Z,100.00
2023-04-07T16:51:29.735Z,100.00
2023-04-07T16:53:57.936Z,100.00
2023-04-07T16:56:26.416Z,100.00
2023-04-07T16:58:56.382Z,100.00
2023-04-07T17:01:24.687Z,100.00
2023-04-07T17:03:53.555Z,100.00
2023-04-07T17:06:22.218Z,100.00
2023-04-07T17:08:50.758Z,100.00
2023-04-07T17:11:26.494Z,100.00
2023-04-07T17:14:01.607Z,100.00
2023-04-07T17:16:35.439Z,100.00
2023-04-07T17:19:03.714Z,100.00
2023-04-07T17:21:32.203Z,100.00
2023-04-07T17:24:00.527Z,100.00
2023-04-07T17:26:29.502Z,100.00
2023-04-07T17:28:57.849Z,100.00
2023-04-07T17:31:26.323Z,100.00
2023-04-07T17:33:54.713Z,100.00
2023-04-07T17:36:22.895Z,100.00
2023-04-07T17:38:51.181Z,100.00
2023-04-07T17:41:20.173Z,100.00
2023-04-07T17:43:48.699Z,100.00
2023-04-07T17:46:17.204Z,100.00
2023-04-07T17:48:45.489Z,100.00
2023-04-07T17:51:14.534Z,100.00
2023-04-07T17:54:12.921Z,100.00
2023-04-07T17:56:57.072Z,100.00
2023-04-07T18:00:07.783Z,100.00
2023-04-07T18:03:20.163Z,100.00
2023-04-07T18:06:25.025Z,100.00
2023-04-07T18:09:00.958Z,100.00
2023-04-07T18:11:29.665Z,100.00
2023-04-07T18:14:11.181Z,100.00
2023-04-07T18:17:35.726Z,100.00
2023-04-07T18:20:42.120Z,100.00
2023-04-07T18:32:27.701Z,100.00
2023-04-07T18:34:56.450Z,100.00
2023-04-07T18:37:29.761Z,100.00
2023-04-07T18:39:58.159Z,100.00
2023-04-07T18:42:26.434Z,100.00
2023-04-07T18:44:55.315Z,100.00
2023-04-07T18:47:23.515Z,100.00
2023-04-07T18:49:53.803Z,100.00
2023-04-07T18:52:22.238Z,100.00
2023-04-07T18:54:56.995Z,100.00
2023-04-07T18:57:31.366Z,100.00
2023-04-07T19:00:48.445Z,100.00
2023-04-07T19:03:23.665Z,100.00
2023-04-07T19:06:32.656Z,100.00
2023-04-07T19:09:53.426Z,100.00
2023-04-07T19:12:52.336Z,100.00
2023-04-07T19:15:24.142Z,100.00
2023-04-07T19:17:55.632Z,100.00
2023-04-07T19:20:24.094Z,100.00
2023-04-07T19:22:52.472Z,100.00
2023-04-07T19:25:21.005Z,100.00
2023-04-07T19:27:50.559Z,100.00
2023-04-07T19:30:18.909Z,100.00
2023-04-07T19:32:47.911Z,100.00
2023-04-07T19:35:17.074Z,100.00
2023-04-07T19:37:46.831Z,100.00
2023-04-07T19:40:16.783Z,100.00
2023-04-07T19:42:45.103Z,100.00
2023-04-07T19:45:46.353Z,100.00
2023-04-07T19:48:38.643Z,100.00
2023-04-07T19:51:56.891Z,100.00
2023-04-07T19:54:38.812Z,100.00
2023-04-07T19:57:43.861Z,100.00
2023-04-07T20:00:35.595Z,100.00
2023-04-07T20:03:27.090Z,100.00
2023-04-07T20:06:06.603Z,100.00
2023-04-07T20:08:56.650Z,100.00
2023-04-07T20:11:55.436Z,100.00
2023-04-07T20:14:32.287Z,100.00
2023-04-07T20:17:17.846Z,100.00
2023-04-07T20:20:10.737Z,100.00
2023-04-07T20:23:10.312Z,100.00
2023-04-07T20:25:50.312Z,100.00
2023-04-07T20:28:19.705Z,100.00
2023-04-07T20:30:55.596Z,100.00
2023-04-07T20:33:24.148Z,100.00
2023-04-07T20:35:53.134Z,100.00
2023-04-07T20:38:21.455Z,100.00
2023-04-07T20:40:50.092Z,100.00
2023-04-07T20:43:20.948Z,100.00
2023-04-07T20:45:49.941Z,100.00
2023-04-07T20:49:45.305Z,100.00
2023-04-07T20:56:51.960Z,100.00
2023-04-07T21:10:26.016Z,100.00
2023-04-07T21:13:52.300Z,100.00
2023-04-07T21:16:53.021Z,100.00
2023-04-07T21:19:21.318Z,100.00
2023-04-07T21:21:49.553Z,100.00
2023-04-07T21:24:18.446Z,100.00
2023-04-07T21:26:46.827Z,100.00
2023-04-07T21:29:15.144Z,100.00
2023-04-07T21:31:48.637Z,100.00
2023-04-07T21:34:17.688Z,100.00
2023-04-07T21:36:48.880Z,100.00
2023-04-07T21:39:17.263Z,100.00
2023-04-07T21:41:45.933Z,100.00
2023-04-07T21:44:15.048Z,100.00
2023-04-07T21:46:47.579Z,100.00
2023-04-07T21:49:18.197Z,100.00
2023-04-07T21:51:46.467Z,100.00
2023-04-07T21:54:15.199Z,100.00
2023-04-07T21:56:43.600Z,100.00
2023-04-07T21:59:11.875Z,100.00
2023-04-07T22:01:40.590Z,100.00
2023-04-07T22:04:09.588Z,100.00
2023-04-07T22:06:37.925Z,100.00
2023-04-07T22:09:07.748Z,100.00
2023-04-07T22:11:36.329Z,100.00
2023-04-07T22:14:04.635Z,100.00
2023-04-07T22:16:33.045Z,100.00
2023-04-07T22:19:01.390Z,100.00
2023-04-07T22:21:30.940Z,100.00
2023-04-07T22:23:59.379Z,100.00
2023-04-07T22:26:27.747Z,100.00
2023-04-07T22:28:56.237Z,100.00
2023-04-07T22:31:24.442Z,100.00
2023-04-07T22:33:53.129Z,100.00
2023-04-07T22:36:21.333Z,100.00
2023-04-07T22:38:49.896Z,100.00
2023-04-07T22:41:18.550Z,100.00
2023-04-07T22:43:47.216Z,100.00
2023-04-07T22:46:17.913Z,100.00
2023-04-07T22:48:46.144Z,100.00
2023-04-07T22:51:14.477Z,100.00
2023-04-07T22:53:42.751Z,100.00
2023-04-07T22:56:11.512Z,100.00
2023-04-07T22:58:39.846Z,100.00
2023-04-07T23:01:08.473Z,100.00
2023-04-07T23:03:46.209Z,100.00
2023-04-07T23:06:14.578Z,100.00
2023-04-07T23:08:50.626Z,100.00
2023-04-07T23:11:28.178Z,100.00
2023-04-07T23:13:56.516Z,100.00
2023-04-07T23:16:24.635Z,100.00
2023-04-07T23:18:53.398Z,100.00
2023-04-07T23:21:21.740Z,100.00
2023-04-07T23:23:59.930Z,100.00
2023-04-07T23:26:28.695Z,100.00
2023-04-07T23:28:57.008Z,100.00
2023-04-07T23:31:56.872Z,100.00
2023-04-07T23:34:25.495Z,100.00
2023-04-07T23:37:12.824Z,100.00
2023-04-07T23:39:41.347Z,100.00
2023-04-07T23:42:10.057Z,100.00
2023-04-07T23:44:40.832Z,100.00
2023-04-07T23:47:09.254Z,100.00
2023-04-07T23:49:57.446Z,100.00
2023-04-07T23:52:26.012Z,100.00
2023-04-07T23:54:54.175Z,100.00
2023-04-07T23:57:25.402Z,100.00
2023-04-07T23:59:53.644Z,100.00
